Time;durP1;ratioP1;P1;durP2;ratioP2;P2;SDS_P1;SDS_P2;PMS_P1;PMS_P2;Temp;Humidity;BMP_temperature;BMP_pressure;BME280_temperature;BME280_humidity;BME280_pressure;Samples;Min_cycle;Max_cycle;Signal;HPM_P1;HPM_P2
2023/06/26 00:01:32;;;;;;;;;;;24.80;97.20;;;;;;7335471;19;109166;-59
2023/06/26 00:04:00;;;;;;;;;;;24.90;97.30;;;;;;7335498;19;109131;-59
2023/06/26 00:06:28;;;;;;;;;;;24.80;97.20;;;;;;7336303;19;108834;-58
2023/06/26 00:08:55;;;;;;;;;;;24.80;97.20;;;;;;7333126;19;112469;-58
2023/06/26 00:11:23;;;;;;;;;;;24.80;97.00;;;;;;7334331;19;109667;-58
2023/06/26 00:13:50;;;;;;;;;;;24.80;97.10;;;;;;7335809;19;110227;-58
2023/06/26 00:16:17;;;;;;;;;;;24.70;96.90;;;;;;7337912;19;109865;-58
2023/06/26 00:18:44;;;;;;;;;;;24.70;97.10;;;;;;7331781;19;109669;-59
2023/06/26 00:21:11;;;;;;;;;;;24.70;97.00;;;;;;7332949;19;109735;-58
2023/06/26 00:23:38;;;;;;;;;;;24.70;97.10;;;;;;7328052;19;110316;-58
2023/06/26 00:26:06;;;;;;;;;;;24.70;97.00;;;;;;7331413;19;108669;-59
2023/06/26 00:28:33;;;;;;;;;;;24.70;97.00;;;;;;7332953;19;109785;-59
2023/06/26 00:31:00;;;;;;;;;;;24.60;97.00;;;;;;7334209;19;109198;-58
2023/06/26 00:33:27;;;;;;;;;;;24.60;97.10;;;;;;7337389;19;108588;-58
2023/06/26 00:35:54;;;;;;;;;;;24.60;97.20;;;;;;7330835;19;111525;-58
2023/06/26 00:38:21;;;;;;;;;;;24.60;97.30;;;;;;7338820;19;111268;-58
2023/06/26 00:40:48;;;;;;;;;;;24.50;97.40;;;;;;7327644;19;109124;-58
2023/06/26 00:43:15;;;;;;;;;;;24.50;97.10;;;;;;7329876;19;109501;-58
2023/06/26 00:45:42;;;;;;;;;;;24.40;97.20;;;;;;7335368;19;109730;-58
2023/06/26 00:48:11;;;;;;;;;;;24.40;97.00;;;;;;7333540;19;109036;-58
2023/06/26 00:50:40;;;;;;;;;;;24.40;97.00;;;;;;7333437;19;109279;-58
2023/06/26 00:53:09;;;;;;;;;;;24.40;96.90;;;;;;7331908;19;109326;-58
2023/06/26 00:55:36;;;;;;;;;;;24.40;96.90;;;;;;7332361;19;110125;-58
2023/06/26 00:58:04;;;;;;;;;;;24.30;96.80;;;;;;7329406;19;109976;-58
2023/06/26 01:00:31;;;;;;;;;;;24.30;96.80;;;;;;7340122;19;108384;-58
2023/06/26 01:02:58;;;;;;;;;;;24.20;97.10;;;;;;7333846;19;109940;-58
2023/06/26 01:05:27;;;;;;;;;;;24.20;96.90;;;;;;7334132;19;108988;-58
2023/06/26 01:07:54;;;;;;;;;;;24.20;97.00;;;;;;7330206;19;112189;-58
2023/06/26 01:10:22;;;;;;;;;;;24.10;96.90;;;;;;7329589;19;110025;-58
2023/06/26 01:12:49;;;;;;;;;;;24.10;96.90;;;;;;7335385;19;108570;-58
2023/06/26 01:15:16;;;;;;;;;;;24.00;97.10;;;;;;7330429;19;109252;-58
2023/06/26 01:17:45;;;;;;;;;;;24.00;96.80;;;;;;7332050;19;109693;-58
2023/06/26 01:20:12;;;;;;;;;;;24.00;96.60;;;;;;7329888;19;111834;-58
2023/06/26 01:22:50;;;;;;;;;;;23.90;96.50;;;;;;7334803;19;110333;-58
2023/06/26 01:25:38;;;;;;;;;;;23.80;96.30;;;;;;7334686;19;108756;-58
2023/06/26 01:28:10;;;;;;;;;;;23.80;96.20;;;;;;7330939;19;108582;-58
2023/06/26 01:30:39;;;;;;;;;;;23.80;96.10;;;;;;7331353;19;109247;-58
2023/06/26 01:33:07;;;;;;;;;;;23.70;96.10;;;;;;7329877;19;111002;-58
2023/06/26 01:35:34;;;;;;;;;;;23.60;96.10;;;;;;7332481;19;111342;-58
2023/06/26 01:38:11;;;;;;;;;;;23.60;96.10;;;;;;7331791;19;109326;-58
2023/06/26 01:40:39;;;;;;;;;;;23.60;96.20;;;;;;7332815;19;110268;-59
2023/06/26 01:43:07;;;;;;;;;;;23.50;96.20;;;;;;7341231;19;110890;-58
2023/06/26 01:45:34;;;;;;;;;;;23.50;96.20;;;;;;7329989;19;108858;-58
2023/06/26 01:48:04;;;;;;;;;;;23.40;96.20;;;;;;7333678;19;108314;-58
2023/06/26 01:50:31;;;;;;;;;;;23.50;96.40;;;;;;7331660;19;110217;-58
2023/06/26 01:53:02;;;;;;;;;;;23.40;96.60;;;;;;7334418;19;109087;-58
2023/06/26 01:55:37;;;;;;;;;;;23.40;96.40;;;;;;7332513;19;109858;-58
2023/06/26 01:58:05;;;;;;;;;;;23.30;96.60;;;;;;7330869;19;109463;-58
2023/06/26 02:00:33;;;;;;;;;;;23.30;96.70;;;;;;7329537;19;109464;-59
2023/06/26 02:03:00;;;;;;;;;;;23.30;96.60;;;;;;7327851;19;109912;-59
2023/06/26 02:05:27;;;;;;;;;;;23.20;96.90;;;;;;7337112;19;110287;-58
2023/06/26 02:07:54;;;;;;;;;;;23.20;97.00;;;;;;7326305;19;109769;-58
2023/06/26 02:10:21;;;;;;;;;;;23.20;97.20;;;;;;7323835;19;110393;-58
2023/06/26 02:12:48;;;;;;;;;;;23.10;97.20;;;;;;7332506;19;108389;-58
2023/06/26 02:15:15;;;;;;;;;;;23.10;97.40;;;;;;7325676;19;109050;-58
2023/06/26 02:17:43;;;;;;;;;;;23.10;97.20;;;;;;7329868;19;109534;-58
2023/06/26 02:20:11;;;;;;;;;;;23.00;97.60;;;;;;7331863;19;109231;-58
2023/06/26 02:22:38;;;;;;;;;;;23.00;97.90;;;;;;7331594;19;108891;-58
2023/06/26 02:25:05;;;;;;;;;;;23.00;97.80;;;;;;7332059;19;111086;-59
2023/06/26 02:27:32;;;;;;;;;;;23.00;97.90;;;;;;7333465;19;110090;-59
2023/06/26 02:29:59;;;;;;;;;;;22.90;97.80;;;;;;7332727;19;109443;-58
2023/06/26 02:32:27;;;;;;;;;;;22.90;97.70;;;;;;7327645;19;110475;-58
2023/06/26 02:34:54;;;;;;;;;;;22.90;98.30;;;;;;7329634;19;108774;-58
2023/06/26 02:37:21;;;;;;;;;;;22.90;98.00;;;;;;7334237;19;110295;-59
2023/06/26 02:39:48;;;;;;;;;;;22.90;98.40;;;;;;7331200;19;109966;-58
2023/06/26 02:42:15;;;;;;;;;;;22.80;98.40;;;;;;7330725;19;109249;-58
2023/06/26 02:44:42;;;;;;;;;;;22.80;98.40;;;;;;7332705;19;109142;-58
2023/06/26 02:47:09;;;;;;;;;;;22.80;98.60;;;;;;7336905;19;109640;-58
2023/06/26 02:49:36;;;;;;;;;;;22.80;98.60;;;;;;7343279;19;109319;-58
2023/06/26 02:52:04;;;;;;;;;;;22.70;99.00;;;;;;7335818;19;108475;-58
2023/06/26 02:54:31;;;;;;;;;;;22.70;99.20;;;;;;7338166;19;109863;-58
2023/06/26 02:56:59;;;;;;;;;;;22.70;98.90;;;;;;7336807;19;109247;-59
2023/06/26 02:59:26;;;;;;;;;;;22.70;99.40;;;;;;7333831;19;108606;-58
2023/06/26 03:01:53;;;;;;;;;;;22.60;99.60;;;;;;7339959;19;109007;-58
2023/06/26 03:04:21;;;;;;;;;;;22.60;99.70;;;;;;7335043;19;109612;-59
2023/06/26 03:06:48;;;;;;;;;;;22.60;99.70;;;;;;7334099;19;110806;-57
2023/06/26 03:09:16;;;;;;;;;;;22.60;99.60;;;;;;7335748;19;110061;-59
2023/06/26 03:11:44;;;;;;;;;;;22.60;99.70;;;;;;7340396;19;109450;-58
2023/06/26 03:14:11;;;;;;;;;;;22.60;99.70;;;;;;7335064;19;111050;-58
2023/06/26 03:16:38;;;;;;;;;;;22.60;99.90;;;;;;7335818;19;109786;-59
2023/06/26 03:19:05;;;;;;;;;;;22.60;99.90;;;;;;7341405;19;109007;-58
2023/06/26 03:21:33;;;;;;;;;;;22.50;99.90;;;;;;7336465;19;109965;-58
2023/06/26 03:24:00;;;;;;;;;;;22.50;99.90;;;;;;7337082;19;109257;-58
2023/06/26 03:26:28;;;;;;;;;;;22.50;99.90;;;;;;7335399;19;108793;-59
2023/06/26 03:28:55;;;;;;;;;;;22.50;99.90;;;;;;7337631;19;109409;-58
2023/06/26 03:31:22;;;;;;;;;;;22.50;99.90;;;;;;7339372;19;109255;-58
2023/06/26 03:33:49;;;;;;;;;;;22.50;99.90;;;;;;7341219;19;108838;-58
2023/06/26 03:36:16;;;;;;;;;;;22.50;99.90;;;;;;7335028;19;109571;-58
2023/06/26 03:38:43;;;;;;;;;;;22.40;99.90;;;;;;7336854;19;109041;-59
2023/06/26 03:41:11;;;;;;;;;;;22.40;99.90;;;;;;7334961;19;110757;-61
2023/06/26 03:43:38;;;;;;;;;;;22.40;99.90;;;;;;7334133;19;110566;-58
2023/06/26 03:46:05;;;;;;;;;;;22.40;99.90;;;;;;7335345;19;108753;-58
2023/06/26 03:48:32;;;;;;;;;;;22.30;99.90;;;;;;7336875;19;108676;-59
2023/06/26 03:51:01;;;;;;;;;;;22.30;99.90;;;;;;7332734;19;111694;-59
2023/06/26 03:53:28;;;;;;;;;;;22.30;99.90;;;;;;7344727;19;108373;-59
2023/06/26 03:55:55;;;;;;;;;;;22.30;99.90;;;;;;7337142;19;110119;-59
2023/06/26 03:58:22;;;;;;;;;;;22.20;99.90;;;;;;7336712;19;108633;-58
2023/06/26 04:00:49;;;;;;;;;;;22.20;99.90;;;;;;7336102;19;109448;-59
2023/06/26 04:03:17;;;;;;;;;;;22.20;99.90;;;;;;7338470;19;110101;-59
2023/06/26 04:05:44;;;;;;;;;;;22.10;99.90;;;;;;7335975;19;108549;-59
2023/06/26 04:08:11;;;;;;;;;;;22.10;99.90;;;;;;7336467;19;109149;-59
2023/06/26 04:10:38;;;;;;;;;;;22.10;99.90;;;;;;7335873;19;109501;-59
2023/06/26 04:13:05;;;;;;;;;;;22.10;99.90;;;;;;7336280;19;108591;-59
2023/06/26 04:15:32;;;;;;;;;;;22.10;99.90;;;;;;7341497;19;108820;-59
2023/06/26 04:17:59;;;;;;;;;;;22.00;99.90;;;;;;7337698;19;109681;-59
2023/06/26 04:20:26;;;;;;;;;;;22.00;99.90;;;;;;7338019;19;108654;-59
2023/06/26 04:22:53;;;;;;;;;;;22.00;99.90;;;;;;7336804;19;109587;-59
2023/06/26 04:25:20;;;;;;;;;;;22.00;99.90;;;;;;7337187;19;109292;-59
2023/06/26 04:27:47;;;;;;;;;;;22.00;99.90;;;;;;7336110;19;109053;-59
2023/06/26 04:30:15;;;;;;;;;;;22.00;99.90;;;;;;7336991;19;109340;-59
2023/06/26 04:32:42;;;;;;;;;;;22.00;99.90;;;;;;7336146;19;108591;-59
2023/06/26 04:35:09;;;;;;;;;;;22.00;99.90;;;;;;7335998;19;110877;-59
2023/06/26 04:37:38;;;;;;;;;;;22.00;99.90;;;;;;7341844;19;109965;-59
2023/06/26 04:40:07;;;;;;;;;;;22.00;99.90;;;;;;7336101;19;110785;-59
2023/06/26 04:42:34;;;;;;;;;;;22.00;99.90;;;;;;7335084;19;109574;-59
2023/06/26 04:45:02;;;;;;;;;;;22.00;99.90;;;;;;7334417;19;108523;-59
2023/06/26 04:47:29;;;;;;;;;;;22.00;99.90;;;;;;7336079;19;109118;-59
2023/06/26 04:49:56;;;;;;;;;;;22.00;99.90;;;;;;7335770;19;110508;-59
2023/06/26 04:52:24;;;;;;;;;;;22.00;99.90;;;;;;7335587;19;109855;-59
2023/06/26 04:54:51;;;;;;;;;;;22.00;99.90;;;;;;7337571;19;109719;-58
2023/06/26 04:57:18;;;;;;;;;;;22.00;99.90;;;;;;7333735;19;109805;-59
2023/06/26 04:59:45;;;;;;;;;;;22.00;99.90;;;;;;7342972;19;108627;-59
2023/06/26 05:02:14;;;;;;;;;;;22.00;99.90;;;;;;7334747;19;110751;-59
2023/06/26 05:04:42;;;;;;;;;;;22.00;99.90;;;;;;7336715;19;108497;-59
2023/06/26 05:07:09;;;;;;;;;;;22.00;99.90;;;;;;7329175;19;114109;-59
2023/06/26 05:09:36;;;;;;;;;;;22.00;99.90;;;;;;7335888;19;110198;-59
2023/06/26 05:12:03;;;;;;;;;;;22.00;99.90;;;;;;7335937;19;108915;-59
2023/06/26 05:14:30;;;;;;;;;;;22.00;99.90;;;;;;7333066;19;108854;-59
2023/06/26 05:16:57;;;;;;;;;;;22.00;99.90;;;;;;7335620;19;109555;-59
2023/06/26 05:19:25;;;;;;;;;;;22.00;99.90;;;;;;7334194;19;110030;-59
2023/06/26 05:21:52;;;;;;;;;;;22.10;99.90;;;;;;7339693;19;110695;-59
2023/06/26 05:24:19;;;;;;;;;;;22.10;99.90;;;;;;7335011;19;108654;-59
2023/06/26 05:26:49;;;;;;;;;;;22.00;99.90;;;;;;7335015;19;108321;-59
2023/06/26 05:29:16;;;;;;;;;;;22.10;99.90;;;;;;7333214;19;110710;-59
2023/06/26 05:31:44;;;;;;;;;;;22.00;99.90;;;;;;7336882;19;109046;-59
2023/06/26 05:34:13;;;;;;;;;;;22.00;99.90;;;;;;7335232;19;108890;-59
2023/06/26 05:36:42;;;;;;;;;;;22.00;99.90;;;;;;7333978;19;109205;-59
2023/06/26 05:39:12;;;;;;;;;;;22.10;99.90;;;;;;7335115;19;108733;-59
2023/06/26 05:41:39;;;;;;;;;;;22.10;99.90;;;;;;7333323;19;108722;-59
2023/06/26 05:44:06;;;;;;;;;;;22.20;99.90;;;;;;7338743;19;110190;-59
2023/06/26 05:46:33;;;;;;;;;;;22.30;99.90;;;;;;7333970;19;110653;-59
2023/06/26 05:49:01;;;;;;;;;;;22.30;99.90;;;;;;7333744;19;109442;-59
2023/06/26 05:51:28;;;;;;;;;;;22.30;99.90;;;;;;7334382;19;108728;-59
2023/06/26 05:53:56;;;;;;;;;;;22.30;99.90;;;;;;7335987;19;109302;-61
2023/06/26 05:56:23;;;;;;;;;;;22.40;99.90;;;;;;7333814;19;109707;-61
2023/06/26 05:58:51;;;;;;;;;;;22.40;99.90;;;;;;7333439;19;109086;-61
2023/06/26 06:01:19;;;;;;;;;;;22.40;99.90;;;;;;7334656;19;109953;-60
2023/06/26 06:03:46;;;;;;;;;;;22.50;99.90;;;;;;7335331;19;109945;-60
2023/06/26 06:06:15;;;;;;;;;;;22.60;99.90;;;;;;7335129;19;110643;-61
2023/06/26 06:08:42;;;;;;;;;;;22.60;99.90;;;;;;7330762;19;109179;-61
2023/06/26 06:11:12;;;;;;;;;;;22.60;99.90;;;;;;7334307;19;108817;-60
2023/06/26 06:13:39;;;;;;;;;;;22.70;99.90;;;;;;7332330;19;109124;-60
2023/06/26 06:16:06;;;;;;;;;;;22.70;99.90;;;;;;7333199;19;109012;-60
2023/06/26 06:18:33;;;;;;;;;;;22.80;99.90;;;;;;7334671;19;108509;-61
2023/06/26 06:21:00;;;;;;;;;;;22.80;99.90;;;;;;7332660;19;109000;-61
2023/06/26 06:23:27;;;;;;;;;;;22.80;99.90;;;;;;7333663;19;109803;-60
2023/06/26 06:25:54;;;;;;;;;;;22.80;99.90;;;;;;7337156;19;109768;-60
2023/06/26 06:28:21;;;;;;;;;;;22.80;99.90;;;;;;7333212;19;109664;-60
2023/06/26 06:30:48;;;;;;;;;;;22.90;99.90;;;;;;7331055;19;109261;-61
2023/06/26 06:33:16;;;;;;;;;;;22.90;99.90;;;;;;7333950;19;108425;-61
2023/06/26 06:35:43;;;;;;;;;;;23.00;99.90;;;;;;7331236;19;109830;-60
2023/06/26 06:38:10;;;;;;;;;;;23.00;99.90;;;;;;7332485;19;108986;-60
2023/06/26 06:40:37;;;;;;;;;;;23.10;99.90;;;;;;7330984;19;108604;-60
2023/06/26 06:43:06;;;;;;;;;;;23.10;99.90;;;;;;7331517;19;109247;-61
2023/06/26 06:45:33;;;;;;;;;;;23.10;99.90;;;;;;7328428;19;109966;-60
2023/06/26 06:48:00;;;;;;;;;;;23.10;99.90;;;;;;7337870;19;108322;-60
2023/06/26 06:50:27;;;;;;;;;;;23.20;99.90;;;;;;7333260;19;108399;-60
2023/06/26 06:52:54;;;;;;;;;;;23.30;99.90;;;;;;7332024;19;113449;-61
2023/06/26 06:55:21;;;;;;;;;;;23.30;99.90;;;;;;7333449;19;109092;-60
2023/06/26 06:57:48;;;;;;;;;;;23.20;99.90;;;;;;7331224;19;109256;-60
2023/06/26 07:00:16;;;;;;;;;;;23.10;99.90;;;;;;7331276;19;109014;-60
2023/06/26 07:02:44;;;;;;;;;;;23.10;99.90;;;;;;7330840;19;110079;-60
2023/06/26 07:05:11;;;;;;;;;;;23.10;99.90;;;;;;7331823;19;108980;-61
2023/06/26 07:07:39;;;;;;;;;;;23.10;99.90;;;;;;7333703;19;108486;-61
2023/06/26 07:10:09;;;;;;;;;;;23.30;99.90;;;;;;7336673;19;109955;-60
2023/06/26 07:12:36;;;;;;;;;;;23.40;99.90;;;;;;7332886;19;109118;-62
2023/06/26 07:15:04;;;;;;;;;;;23.50;99.90;;;;;;7325373;19;110026;-61
2023/06/26 07:17:34;;;;;;;;;;;23.60;99.90;;;;;;7331341;19;110174;-61
2023/06/26 07:20:06;;;;;;;;;;;23.70;99.90;;;;;;7330479;19;108812;-61
2023/06/26 07:22:36;;;;;;;;;;;23.80;99.90;;;;;;7331894;19;110141;-61
2023/06/26 07:25:04;;;;;;;;;;;23.80;99.90;;;;;;7329092;19;109920;-61
2023/06/26 07:27:33;;;;;;;;;;;23.80;99.90;;;;;;7334734;19;108621;-60
2023/06/26 07:30:00;;;;;;;;;;;23.70;99.90;;;;;;7334316;19;109200;-61
2023/06/26 07:32:27;;;;;;;;;;;23.70;99.90;;;;;;7343045;19;108446;-61
2023/06/26 07:34:54;;;;;;;;;;;23.70;99.90;;;;;;7337427;19;109115;-61
2023/06/26 07:37:22;;;;;;;;;;;23.90;99.90;;;;;;7339557;19;109028;-60
2023/06/26 07:39:49;;;;;;;;;;;24.00;99.90;;;;;;7333810;19;109427;-60
2023/06/26 07:42:16;;;;;;;;;;;24.10;99.90;;;;;;7338260;19;109179;-61
2023/06/26 07:44:43;;;;;;;;;;;24.10;99.90;;;;;;7334040;19;109748;-60
2023/06/26 07:47:11;;;;;;;;;;;23.90;99.80;;;;;;7337588;19;109178;-61
2023/06/26 07:49:39;;;;;;;;;;;23.90;99.90;;;;;;7334249;19;113098;-61
2023/06/26 07:52:06;;;;;;;;;;;23.90;99.90;;;;;;7339358;19;108976;-61
2023/06/26 07:54:33;;;;;;;;;;;23.90;99.30;;;;;;7344036;19;108940;-64
2023/06/26 07:57:02;;;;;;;;;;;23.90;99.90;;;;;;7338985;19;108541;-61
2023/06/26 07:59:29;;;;;;;;;;;23.90;99.60;;;;;;7337291;19;109960;-61
2023/06/26 08:01:57;;;;;;;;;;;23.90;99.90;;;;;;7336301;19;109442;-62
2023/06/26 08:04:26;;;;;;;;;;;24.10;99.90;;;;;;7337253;19;108710;-65
2023/06/26 08:06:54;;;;;;;;;;;24.30;99.50;;;;;;7333510;19;109083;-64
2023/06/26 08:09:22;;;;;;;;;;;24.40;99.10;;;;;;7339235;19;110041;-61
2023/06/26 08:11:49;;;;;;;;;;;24.50;99.00;;;;;;7336303;19;108739;-61
2023/06/26 08:14:16;;;;;;;;;;;24.60;98.60;;;;;;7342106;19;108812;-61
2023/06/26 08:16:46;;;;;;;;;;;24.60;98.50;;;;;;7335755;19;108542;-60
2023/06/26 08:19:14;;;;;;;;;;;24.70;98.30;;;;;;7339299;19;109568;-61
2023/06/26 08:21:42;;;;;;;;;;;24.70;97.70;;;;;;7333877;19;109730;-61
2023/06/26 08:24:09;;;;;;;;;;;24.80;97.20;;;;;;7337433;19;108682;-61
2023/06/26 08:26:36;;;;;;;;;;;24.80;96.90;;;;;;7337808;19;109592;-61
2023/06/26 08:29:12;;;;;;;;;;;24.80;97.30;;;;;;7336548;19;110097;-61
2023/06/26 08:31:39;;;;;;;;;;;24.90;97.50;;;;;;7337527;19;108425;-61
2023/06/26 08:34:07;;;;;;;;;;;25.00;97.40;;;;;;7334588;19;110242;-60
2023/06/26 08:36:34;;;;;;;;;;;25.00;97.20;;;;;;7341519;19;109903;-61
2023/06/26 08:39:01;;;;;;;;;;;25.00;97.30;;;;;;7334969;19;111031;-61
2023/06/26 08:41:28;;;;;;;;;;;25.00;97.10;;;;;;7335217;19;109458;-60
2023/06/26 08:43:55;;;;;;;;;;;25.00;96.90;;;;;;7331697;19;109392;-61
2023/06/26 08:46:22;;;;;;;;;;;24.90;95.80;;;;;;7332608;19;108824;-61
2023/06/26 08:48:54;;;;;;;;;;;24.80;95.60;;;;;;7334536;19;113236;-61
2023/06/26 08:51:23;;;;;;;;;;;24.60;94.60;;;;;;7334429;19;108738;-61
2023/06/26 08:53:50;;;;;;;;;;;24.30;95.30;;;;;;7332208;19;109429;-62
2023/06/26 08:56:21;;;;;;;;;;;24.30;95.10;;;;;;7328025;19;110710;-61
2023/06/26 08:58:49;;;;;;;;;;;24.40;95.90;;;;;;7331286;19;109503;-62
2023/06/26 09:01:18;;;;;;;;;;;24.60;96.00;;;;;;7333951;19;110428;-62
2023/06/26 09:03:46;;;;;;;;;;;24.80;95.60;;;;;;7331586;19;110159;-62
2023/06/26 09:06:13;;;;;;;;;;;24.80;95.40;;;;;;7334739;19;108641;-62
2023/06/26 09:08:40;;;;;;;;;;;25.00;95.30;;;;;;7332578;19;110106;-62
2023/06/26 09:11:07;;;;;;;;;;;25.10;95.30;;;;;;7334300;19;110675;-62
2023/06/26 09:13:35;;;;;;;;;;;25.30;95.00;;;;;;7332649;19;108996;-62
2023/06/26 09:16:08;;;;;;;;;;;25.40;94.80;;;;;;7335050;19;110266;-62
2023/06/26 09:18:35;;;;;;;;;;;25.60;94.20;;;;;;7333564;19;110523;-62
2023/06/26 09:21:06;;;;;;;;;;;25.70;93.50;;;;;;7336619;19;109095;-62
2023/06/26 09:23:34;;;;;;;;;;;25.80;93.20;;;;;;7334606;19;110482;-62
2023/06/26 09:26:05;;;;;;;;;;;25.80;92.90;;;;;;7333262;19;109940;-62
2023/06/26 09:28:33;;;;;;;;;;;25.80;91.80;;;;;;7333779;19;109238;-62
2023/06/26 09:31:01;;;;;;;;;;;25.80;92.50;;;;;;7332815;19;109190;-62
2023/06/26 09:33:34;;;;;;;;;;;25.80;92.50;;;;;;7337347;19;108807;-62
2023/06/26 09:36:01;;;;;;;;;;;25.80;91.80;;;;;;7336557;19;110566;-62
2023/06/26 09:38:28;;;;;;;;;;;25.70;92.00;;;;;;7331219;19;108775;-62
2023/06/26 09:40:55;;;;;;;;;;;25.70;92.20;;;;;;7334593;19;109902;-62
2023/06/26 09:43:23;;;;;;;;;;;25.80;91.90;;;;;;7338944;19;110198;-62
2023/06/26 09:45:50;;;;;;;;;;;25.90;91.60;;;;;;7333130;19;108204;-62
2023/06/26 09:48:18;;;;;;;;;;;26.00;91.70;;;;;;7335596;19;109267;-62
2023/06/26 09:50:46;;;;;;;;;;;26.00;91.00;;;;;;7331188;19;109063;-62
2023/06/26 09:53:35;;;;;;;;;;;26.00;91.50;;;;;;7334001;19;111714;-62
2023/06/26 09:56:06;;;;;;;;;;;26.10;90.50;;;;;;7334092;19;110791;-62
2023/06/26 09:58:36;;;;;;;;;;;26.10;90.80;;;;;;7333753;19;108455;-62
2023/06/26 10:01:03;;;;;;;;;;;26.20;90.50;;;;;;7333644;19;111367;-62
2023/06/26 10:03:31;;;;;;;;;;;26.20;90.40;;;;;;7333647;19;109373;-63
2023/06/26 10:06:00;;;;;;;;;;;26.30;90.50;;;;;;7338087;19;110511;-62
2023/06/26 10:08:28;;;;;;;;;;;26.20;87.90;;;;;;7333346;19;109469;-63
2023/06/26 10:10:56;;;;;;;;;;;26.20;90.00;;;;;;7331735;19;108543;-63
2023/06/26 10:13:29;;;;;;;;;;;26.10;90.10;;;;;;7328582;19;110752;-62
2023/06/26 10:15:57;;;;;;;;;;;26.20;87.90;;;;;;7334726;19;109963;-62
2023/06/26 10:18:25;;;;;;;;;;;26.10;90.00;;;;;;7330696;19;108697;-62
2023/06/26 10:20:55;;;;;;;;;;;26.10;89.00;;;;;;7334786;19;109684;-62
2023/06/26 10:23:23;;;;;;;;;;;26.00;89.00;;;;;;7331653;19;109587;-62
2023/06/26 10:25:52;;;;;;;;;;;26.00;90.30;;;;;;7337813;19;108663;-61
2023/06/26 10:28:20;;;;;;;;;;;26.30;90.00;;;;;;7330719;19;111995;-62
2023/06/26 10:30:50;;;;;;;;;;;26.40;89.20;;;;;;7331154;19;110777;-61
2023/06/26 10:33:18;;;;;;;;;;;26.40;87.20;;;;;;7334183;19;108657;-61
2023/06/26 10:35:46;;;;;;;;;;;26.40;86.50;;;;;;7330166;19;109124;-61
2023/06/26 10:38:13;;;;;;;;;;;26.30;85.80;;;;;;7332902;19;110613;-62
2023/06/26 10:40:48;;;;;;;;;;;26.30;86.90;;;;;;7333172;19;110459;-62
2023/06/26 10:43:16;;;;;;;;;;;26.50;88.40;;;;;;7331730;19;109669;-61
2023/06/26 10:45:45;;;;;;;;;;;26.40;87.80;;;;;;7330356;19;108896;-62
2023/06/26 10:48:15;;;;;;;;;;;26.20;84.00;;;;;;7339023;19;108832;-62
2023/06/26 10:50:43;;;;;;;;;;;26.00;83.70;;;;;;7331672;19;109503;-62
2023/06/26 10:53:13;;;;;;;;;;;25.90;84.30;;;;;;7332639;19;108695;-61
2023/06/26 10:55:42;;;;;;;;;;;26.00;84.20;;;;;;7331224;19;109813;-63
2023/06/26 10:58:30;;;;;;;;;;;26.20;84.80;;;;;;7334824;19;109514;-61
2023/06/26 11:01:09;;;;;;;;;;;26.20;83.30;;;;;;7332739;19;109683;-62
2023/06/26 11:03:37;;;;;;;;;;;26.10;84.90;;;;;;7333960;19;110903;-63
2023/06/26 11:06:13;;;;;;;;;;;26.20;85.20;;;;;;7334627;19;111274;-67
2023/06/26 11:08:49;;;;;;;;;;;26.20;85.10;;;;;;7342780;19;110466;-65
2023/06/26 11:11:16;;;;;;;;;;;26.30;85.10;;;;;;7347215;19;109403;-60
2023/06/26 11:13:45;;;;;;;;;;;26.60;84.70;;;;;;7336822;19;109699;-64
2023/06/26 11:16:12;;;;;;;;;;;26.70;84.60;;;;;;7338971;19;110384;-63
2023/06/26 11:18:40;;;;;;;;;;;26.70;82.20;;;;;;7339911;19;109390;-62
2023/06/26 11:21:13;;;;;;;;;;;26.30;82.40;;;;;;7336928;19;109674;-61
2023/06/26 11:23:40;;;;;;;;;;;26.20;82.80;;;;;;7338701;19;110719;-61
2023/06/26 11:26:18;;;;;;;;;;;26.30;82.40;;;;;;7335755;19;110644;-62
2023/06/26 11:28:48;;;;;;;;;;;26.40;83.90;;;;;;7336034;19;108660;-61
2023/06/26 11:31:25;;;;;;;;;;;26.60;83.80;;;;;;7338823;19;112149;-63
2023/06/26 11:33:56;;;;;;;;;;;26.60;80.50;;;;;;7345131;19;108658;-64
2023/06/26 11:36:24;;;;;;;;;;;26.50;80.70;;;;;;7341413;19;110039;-61
2023/06/26 11:39:11;;;;;;;;;;;26.50;82.40;;;;;;7339861;19;108840;-61
2023/06/26 11:41:39;;;;;;;;;;;26.70;82.10;;;;;;7339918;19;109027;-62
2023/06/26 11:44:07;;;;;;;;;;;26.60;80.40;;;;;;7340793;19;110084;-62
2023/06/26 11:46:34;;;;;;;;;;;26.60;81.10;;;;;;7340710;19;108873;-62
2023/06/26 11:49:04;;;;;;;;;;;26.80;81.60;;;;;;7339976;19;108341;-61
2023/06/26 11:51:32;;;;;;;;;;;27.00;80.90;;;;;;7336287;19;112356;-61
2023/06/26 11:54:03;;;;;;;;;;;27.20;80.70;;;;;;7337264;19;109149;-62
2023/06/26 11:56:31;;;;;;;;;;;27.20;79.90;;;;;;7346138;19;108733;-61
2023/06/26 11:59:05;;;;;;;;;;;27.30;79.00;;;;;;7338262;19;109909;-61
2023/06/26 12:01:38;;;;;;;;;;;27.30;79.90;;;;;;7338208;19;109714;-64
2023/06/26 12:04:06;;;;;;;;;;;27.40;79.90;;;;;;7337773;19;109157;-61
2023/06/26 12:06:35;;;;;;;;;;;27.30;79.00;;;;;;7339016;19;108948;-61
2023/06/26 12:09:05;;;;;;;;;;;27.30;79.70;;;;;;7337177;19;108829;-62
2023/06/26 12:11:34;;;;;;;;;;;27.40;80.10;;;;;;7335899;19;109138;-62
2023/06/26 12:14:01;;;;;;;;;;;27.50;80.00;;;;;;7321673;19;108968;-74
2023/06/26 12:16:29;;;;;;;;;;;27.50;77.60;;;;;;7324773;19;109854;-62
2023/06/26 12:19:03;;;;;;;;;;;27.20;78.10;;;;;;7335466;19;109066;-61
2023/06/26 12:21:34;;;;;;;;;;;27.20;79.70;;;;;;7336283;19;109147;-62
2023/06/26 12:24:01;;;;;;;;;;;26.90;79.60;;;;;;7335161;19;109066;-70
2023/06/26 12:26:33;;;;;;;;;;;26.40;80.90;;;;;;7335369;19;108995;-64
2023/06/26 12:29:07;;;;;;;;;;;26.30;82.60;;;;;;7333327;19;108986;-70
2023/06/26 12:31:35;;;;;;;;;;;26.30;82.90;;;;;;7336524;19;110010;-65
2023/06/26 12:34:08;;;;;;;;;;;26.30;81.30;;;;;;7331018;19;111027;-67
2023/06/26 12:36:42;;;;;;;;;;;26.20;82.40;;;;;;7335067;19;109976;-62
2023/06/26 12:39:10;;;;;;;;;;;26.30;83.10;;;;;;7338335;19;109936;-66
2023/06/26 12:41:44;;;;;;;;;;;26.60;83.60;;;;;;7335497;19;108882;-68
2023/06/26 12:44:19;;;;;;;;;;;26.80;81.40;;;;;;7334309;19;109379;-64
2023/06/26 12:46:48;;;;;;;;;;;26.70;80.60;;;;;;7332754;19;108847;-69
2023/06/26 12:49:16;;;;;;;;;;;26.80;82.20;;;;;;7332167;19;109049;-67
2023/06/26 12:51:58;;;;;;;;;;;27.00;81.10;;;;;;7332296;19;109431;-64
2023/06/26 12:54:25;;;;;;;;;;;27.20;79.20;;;;;;7336541;19;109296;-67
2023/06/26 12:56:52;;;;;;;;;;;27.00;79.70;;;;;;7333964;19;109814;-66
2023/06/26 12:59:20;;;;;;;;;;;26.80;79.20;;;;;;7335319;19;112357;-63
2023/06/26 13:01:47;;;;;;;;;;;26.50;80.40;;;;;;7338351;19;110416;-70
2023/06/26 13:04:15;;;;;;;;;;;26.40;80.70;;;;;;7334383;19;112154;-69
2023/06/26 13:06:42;;;;;;;;;;;26.40;82.10;;;;;;7332421;19;108336;-69
2023/06/26 13:09:09;;;;;;;;;;;26.30;81.50;;;;;;7333038;19;110757;-68
2023/06/26 13:11:37;;;;;;;;;;;26.40;82.70;;;;;;7332494;19;109731;-64
2023/06/26 13:14:04;;;;;;;;;;;26.70;83.50;;;;;;7331901;19;108844;-69
2023/06/26 13:16:37;;;;;;;;;;;27.00;82.30;;;;;;7331360;19;108910;-73
2023/06/26 13:19:05;;;;;;;;;;;27.30;81.40;;;;;;7332960;19;109743;-69
2023/06/26 13:21:33;;;;;;;;;;;27.60;80.80;;;;;;7333689;19;110425;-70
2023/06/26 13:24:01;;;;;;;;;;;27.80;80.50;;;;;;7337237;19;109191;-63
2023/06/26 13:26:28;;;;;;;;;;;27.80;79.20;;;;;;7334849;19;108904;-66
2023/06/26 13:28:58;;;;;;;;;;;27.90;78.50;;;;;;7330429;19;108952;-70
2023/06/26 13:31:26;;;;;;;;;;;27.90;77.00;;;;;;7334692;19;109897;-68
2023/06/26 13:33:53;;;;;;;;;;;27.80;75.50;;;;;;7331897;19;110072;-72
2023/06/26 13:36:21;;;;;;;;;;;27.80;75.20;;;;;;7332565;19;110361;-66
2023/06/26 13:38:55;;;;;;;;;;;27.50;75.00;;;;;;7330089;19;110546;-69
2023/06/26 13:41:23;;;;;;;;;;;27.30;74.70;;;;;;7333110;19;108749;-74
2023/06/26 13:43:50;;;;;;;;;;;27.30;77.30;;;;;;7331038;19;109353;-68
2023/06/26 13:46:18;;;;;;;;;;;27.40;76.40;;;;;;7338751;19;109863;-72
2023/06/26 13:48:45;;;;;;;;;;;27.60;76.70;;;;;;7332837;19;109280;-64
2023/06/26 13:51:12;;;;;;;;;;;27.60;72.80;;;;;;7334136;19;111247;-66
2023/06/26 13:53:40;;;;;;;;;;;27.60;74.60;;;;;;7331824;19;108486;-66
2023/06/26 13:56:07;;;;;;;;;;;27.70;76.60;;;;;;7335696;19;108783;-70
2023/06/26 13:58:36;;;;;;;;;;;27.70;74.00;;;;;;7334280;19;111740;-64
2023/06/26 14:01:06;;;;;;;;;;;27.60;74.40;;;;;;7331725;19;109160;-65
2023/06/26 14:03:33;;;;;;;;;;;27.70;73.70;;;;;;7331942;19;109233;-65
2023/06/26 14:06:01;;;;;;;;;;;27.80;76.00;;;;;;7333305;19;109307;-69
2023/06/26 14:08:28;;;;;;;;;;;28.10;76.60;;;;;;7336461;19;108682;-65
2023/06/26 14:10:55;;;;;;;;;;;28.40;75.00;;;;;;7330856;19;111513;-64